createdAt,value
2018-05-16T00:00:34.842Z,60.32
2018-05-16T00:03:03.802Z,60.50
2018-05-16T00:05:33.907Z,60.10
2018-05-16T00:08:03.221Z,59.92
2018-05-16T00:10:32.805Z,60.32
2018-05-16T00:13:01.159Z,60.23
2018-05-16T00:15:30.773Z,60.12
2018-05-16T00:18:00.171Z,60.22
2018-05-16T00:20:29.278Z,60.45
2018-05-16T00:22:58.434Z,60.11
2018-05-16T00:25:27.555Z,60.17
2018-05-16T00:27:56.684Z,60.66
2018-05-16T00:30:24.979Z,61.68
2018-05-16T00:32:54.241Z,61.03
2018-05-16T00:35:23.330Z,61.12
2018-05-16T00:37:52.807Z,60.62
2018-05-16T00:40:22.450Z,60.71
2018-05-16T00:42:50.762Z,60.90
2018-05-16T00:45:19.106Z,61.10
2018-05-16T00:47:48.498Z,60.87
2018-05-16T00:50:20.409Z,61.03
2018-05-16T00:52:49.380Z,61.43
2018-05-16T00:55:18.793Z,62.06
2018-05-16T00:57:47.717Z,61.49
2018-05-16T01:00:16.090Z,61.59
2018-05-16T01:02:44.454Z,63.14
2018-05-16T01:05:13.673Z,63.76
2018-05-16T01:07:42.010Z,64.18
2018-05-16T01:10:11.228Z,64.44
2018-05-16T01:12:39.526Z,64.25
2018-05-16T01:15:08.986Z,65.71
2018-05-16T01:17:38.071Z,64.99
2018-05-16T01:20:06.383Z,65.21
2018-05-16T01:22:34.973Z,65.42
2018-05-16T01:25:03.688Z,65.96
2018-05-16T01:27:32.690Z,65.46
2018-05-16T01:30:01.052Z,65.75
2018-05-16T01:32:29.830Z,66.30
2018-05-16T01:34:58.828Z,66.50
2018-05-16T01:37:28.610Z,66.61
2018-05-16T01:39:57.900Z,66.73
2018-05-16T01:42:26.130Z,67.19
2018-05-16T01:44:55.415Z,66.71
2018-05-16T01:47:23.710Z,67.36
2018-05-16T01:49:52.708Z,66.88
2018-05-16T01:52:21.084Z,66.04
2018-05-16T01:54:49.968Z,65.81
2018-05-16T01:57:19.056Z,66.10
2018-05-16T01:59:47.890Z,65.22
2018-05-16T02:02:16.324Z,65.47
2018-05-16T02:04:44.625Z,65.68
2018-05-16T02:07:12.918Z,66.04
2018-05-16T02:09:41.901Z,65.63
2018-05-16T02:12:10.636Z,65.56
2018-05-16T02:14:39.783Z,66.17
2018-05-16T02:17:09.176Z,68.37
2018-05-16T02:19:38.242Z,68.82
2018-05-16T02:22:07.340Z,68.77
2018-05-16T02:24:35.642Z,69.78
2018-05-16T02:27:03.933Z,69.19
2018-05-16T02:29:33.022Z,69.32
2018-05-16T02:32:01.324Z,69.49
2018-05-16T02:34:29.821Z,70.06
2018-05-16T02:36:58.895Z,70.24
2018-05-16T02:39:27.191Z,70.51
2018-05-16T02:41:55.489Z,70.50
2018-05-16T02:44:24.556Z,70.04
2018-05-16T02:46:53.706Z,69.51
2018-05-16T02:49:22.009Z,69.36
2018-05-16T02:51:50.409Z,69.09
2018-05-16T02:54:18.948Z,68.40
2018-05-16T02:56:47.665Z,68.45
2018-05-16T02:59:16.356Z,68.63
2018-05-16T03:01:44.943Z,68.61
2018-05-16T03:04:13.317Z,68.32
2018-05-16T03:06:41.638Z,68.75
2018-05-16T03:09:10.737Z,68.16
2018-05-16T03:11:39.800Z,69.11
2018-05-16T03:14:08.141Z,68.60
2018-05-16T03:16:36.630Z,68.54
2018-05-16T03:19:05.220Z,68.56
2018-05-16T03:21:35.210Z,68.18
2018-05-16T03:24:04.274Z,68.67
2018-05-16T03:26:32.858Z,68.59
2018-05-16T03:29:01.160Z,68.54
2018-05-16T03:31:30.303Z,68.71
2018-05-16T03:33:58.559Z,69.27
2018-05-16T03:36:26.868Z,70.21
2018-05-16T03:38:56.443Z,69.30
2018-05-16T03:41:24.791Z,69.84
2018-05-16T03:43:54.890Z,69.92
2018-05-16T03:46:23.875Z,68.39
2018-05-16T03:48:52.166Z,66.72
2018-05-16T03:51:21.293Z,67.08
2018-05-16T03:53:50.998Z,67.12
2018-05-16T03:56:20.813Z,67.19
2018-05-16T03:59:07.557Z,66.92
2018-05-16T04:01:53.579Z,68.79
2018-05-16T04:04:21.896Z,69.37
2018-05-16T04:06:50.957Z,69.27
2018-05-16T04:09:19.334Z,70.26
2018-05-16T04:11:47.707Z,70.53
2018-05-16T04:14:16.102Z,71.37
2018-05-16T04:16:44.418Z,70.81
2018-05-16T04:19:13.703Z,70.37
2018-05-16T04:21:43.650Z,70.08
2018-05-16T04:24:12.698Z,70.29
2018-05-16T04:26:41.081Z,70.94
2018-05-16T04:29:09.737Z,70.69
2018-05-16T04:31:38.135Z,69.97
2018-05-16T04:34:06.433Z,70.71
2018-05-16T04:36:34.754Z,70.60
2018-05-16T04:39:03.152Z,69.97
2018-05-16T04:41:31.969Z,69.01
2018-05-16T04:44:01.830Z,68.47
2018-05-16T04:46:30.906Z,68.24
2018-05-16T04:48:59.205Z,67.93
2018-05-16T04:51:28.548Z,67.10
2018-05-16T04:53:57.661Z,67.40
2018-05-16T04:56:25.951Z,67.74
2018-05-16T04:58:55.162Z,67.81
2018-05-16T05:01:25.157Z,68.11
2018-05-16T05:03:53.451Z,68.23
2018-05-16T05:06:23.279Z,69.21
2018-05-16T05:08:52.547Z,68.88
2018-05-16T05:11:21.557Z,69.72
2018-05-16T05:13:50.739Z,69.80
2018-05-16T05:16:19.059Z,70.49
2018-05-16T05:18:47.872Z,69.17
2018-05-16T05:21:16.329Z,69.08
2018-05-16T05:23:45.482Z,68.61
2018-05-16T05:26:14.490Z,68.38
2018-05-16T05:28:43.031Z,67.68
2018-05-16T05:31:12.016Z,68.17
2018-05-16T05:33:40.358Z,68.03
2018-05-16T05:36:09.533Z,68.18
2018-05-16T05:38:37.868Z,69.44
2018-05-16T05:41:06.177Z,69.77
2018-05-16T05:43:34.945Z,66.95
2018-05-16T05:46:04.054Z,66.17
2018-05-16T05:48:32.529Z,65.41
2018-05-16T05:51:02.277Z,63.92
2018-05-16T05:53:30.570Z,64.32
2018-05-16T05:55:59.751Z,64.62
2018-05-16T05:58:28.040Z,64.18
2018-05-16T06:00:56.786Z,64.32
2018-05-16T06:03:25.192Z,65.07
2018-05-16T06:05:54.296Z,64.85
2018-05-16T06:08:23.567Z,64.94
2018-05-16T06:10:52.074Z,64.62
2018-05-16T06:13:20.892Z,65.10
2018-05-16T06:15:49.983Z,65.03
2018-05-16T06:18:18.329Z,64.15
2018-05-16T06:20:46.839Z,64.00
2018-05-16T06:23:15.960Z,63.62
2018-05-16T06:25:44.326Z,62.38
2018-05-16T06:28:14.137Z,62.51
2018-05-16T06:30:43.092Z,62.57
2018-05-16T06:33:11.404Z,61.42
2018-05-16T06:35:40.540Z,61.35
2018-05-16T06:38:09.069Z,61.37
2018-05-16T06:40:38.091Z,60.27
2018-05-16T06:43:07.156Z,59.74
2018-05-16T06:45:35.580Z,59.27
2018-05-16T06:48:04.670Z,60.56
2018-05-16T06:50:33.722Z,59.97
2018-05-16T06:53:02.070Z,58.82
2018-05-16T06:55:30.380Z,58.04
2018-05-16T06:57:59.338Z,57.11
2018-05-16T07:00:29.095Z,56.48
2018-05-16T07:02:57.419Z,55.66
2018-05-16T07:05:26.599Z,56.40
2018-05-16T07:07:55.393Z,55.93
2018-05-16T07:10:25.476Z,55.32
2018-05-16T07:12:53.778Z,55.75
2018-05-16T07:15:22.070Z,55.17
2018-05-16T07:17:50.726Z,55.17
2018-05-16T07:20:19.023Z,53.16
2018-05-16T07:22:47.353Z,52.19
2018-05-16T07:25:16.054Z,52.92
2018-05-16T07:27:44.863Z,52.70
2018-05-16T07:30:13.892Z,52.56
2018-05-16T07:32:43.256Z,52.25
2018-05-16T07:35:13.082Z,51.04
2018-05-16T07:37:42.139Z,50.61
2018-05-16T07:40:10.413Z,50.68
2018-05-16T07:42:38.737Z,50.57
2018-05-16T07:45:07.311Z,51.77
2018-05-16T07:47:35.957Z,50.92
2018-05-16T07:50:04.260Z,51.29
2018-05-16T07:52:32.661Z,51.28
2018-05-16T07:55:02.039Z,50.47
2018-05-16T07:57:30.438Z,51.13
2018-05-16T07:59:58.722Z,51.22
2018-05-16T08:02:27.334Z,51.75
2018-05-16T08:04:56.809Z,50.95
2018-05-16T08:07:25.921Z,49.66
2018-05-16T08:09:54.997Z,49.86
2018-05-16T08:12:23.319Z,50.12
2018-05-16T08:14:52.744Z,49.91
2018-05-16T08:17:21.730Z,50.02
2018-05-16T08:19:50.855Z,53.67
2018-05-16T08:22:19.416Z,50.51
2018-05-16T08:24:48.303Z,51.04
2018-05-16T08:27:16.737Z,51.01
2018-05-16T08:29:45.554Z,51.54
2018-05-16T08:32:15.367Z,51.31
2018-05-16T08:34:45.149Z,52.57
2018-05-16T08:37:13.451Z,51.30
2018-05-16T08:39:41.806Z,50.11
2018-05-16T08:42:10.631Z,50.96
2018-05-16T08:44:39.700Z,51.97
2018-05-16T08:47:08.578Z,51.57
2018-05-16T08:49:37.076Z,52.63
2018-05-16T08:52:05.382Z,53.47
2018-05-16T08:54:34.634Z,52.04
2018-05-16T08:57:04.421Z,51.37
2018-05-16T08:59:33.432Z,51.28
2018-05-16T09:02:01.827Z,52.88
2018-05-16T09:04:30.924Z,50.46
2018-05-16T09:06:59.817Z,50.60
2018-05-16T09:09:28.810Z,50.81
2018-05-16T09:11:57.617Z,49.84
2018-05-16T09:14:25.953Z,50.21
2018-05-16T09:16:55.946Z,50.75
2018-05-16T09:19:25.420Z,50.09
2018-05-16T09:21:54.101Z,51.36
2018-05-16T09:24:22.413Z,48.97
2018-05-16T09:26:50.950Z,50.13
2018-05-16T09:29:19.388Z,48.98
2018-05-16T09:31:48.453Z,49.50
2018-05-16T09:34:18.341Z,48.47
2018-05-16T09:36:47.385Z,48.59
2018-05-16T09:39:17.142Z,49.70
2018-05-16T09:41:45.651Z,48.25
2018-05-16T09:44:15.002Z,47.94
2018-05-16T09:46:43.719Z,47.60
2018-05-16T09:49:12.560Z,49.99
2018-05-16T09:51:41.710Z,49.93
2018-05-16T09:54:10.034Z,48.90
2018-05-16T09:56:39.740Z,49.09
2018-05-16T09:59:08.937Z,49.15
2018-05-16T10:01:37.969Z,47.03
2018-05-16T10:04:06.420Z,46.49
2018-05-16T10:06:34.786Z,48.10
2018-05-16T10:09:03.345Z,50.04
2018-05-16T10:11:31.631Z,48.54
2018-05-16T10:14:00.174Z,48.31
2018-05-16T10:16:29.024Z,48.49
2018-05-16T10:18:57.384Z,49.47
2018-05-16T10:21:25.961Z,49.06
2018-05-16T10:23:54.783Z,48.77
2018-05-16T10:26:24.654Z,45.93
2018-05-16T10:28:52.963Z,48.04
2018-05-16T10:31:21.595Z,45.56
2018-05-16T10:33:49.961Z,47.47
2018-05-16T10:36:19.045Z,46.39
2018-05-16T10:38:48.145Z,46.50
2018-05-16T10:41:17.256Z,48.08
2018-05-16T10:43:45.515Z,47.09
2018-05-16T10:46:14.809Z,46.77
2018-05-16T10:48:43.140Z,46.16
2018-05-16T10:51:11.434Z,46.93
2018-05-16T10:53:39.756Z,46.97
2018-05-16T10:56:09.337Z,48.06
2018-05-16T10:58:37.621Z,49.02
2018-05-16T11:01:05.958Z,49.73
2018-05-16T11:03:34.248Z,47.26
2018-05-16T11:06:02.545Z,48.29
2018-05-16T11:08:31.714Z,46.92
2018-05-16T11:11:00.504Z,47.42
2018-05-16T11:13:28.801Z,48.18
2018-05-16T11:15:57.105Z,44.99
2018-05-16T11:18:25.635Z,45.54
2018-05-16T11:20:53.949Z,42.01
2018-05-16T11:23:22.556Z,42.80
2018-05-16T11:25:51.315Z,44.99
2018-05-16T11:28:20.474Z,42.24
2018-05-16T11:30:49.591Z,42.26
2018-05-16T11:33:17.895Z,43.63
2018-05-16T11:35:46.245Z,41.83
2018-05-16T11:38:14.590Z,39.35
2018-05-16T11:40:43.797Z,41.32
2018-05-16T11:43:13.422Z,40.85
2018-05-16T11:45:41.759Z,39.82
2018-05-16T11:48:11.648Z,39.87
2018-05-16T11:50:40.054Z,40.95
2018-05-16T11:53:09.271Z,40.12
2018-05-16T11:55:38.341Z,38.64
2018-05-16T11:58:07.377Z,36.88
2018-05-16T12:00:36.562Z,36.76
2018-05-16T12:03:05.641Z,38.02
2018-05-16T12:05:33.943Z,38.38
2018-05-16T12:08:03.010Z,36.62
2018-05-16T12:10:31.352Z,36.18
2018-05-16T12:13:01.694Z,35.47
2018-05-16T12:15:29.997Z,34.59
2018-05-16T12:17:59.575Z,35.17
2018-05-16T12:20:28.104Z,35.28
2018-05-16T12:22:57.391Z,33.75
2018-05-16T12:25:26.245Z,29.94
2018-05-16T12:27:55.174Z,28.32
2018-05-16T12:30:23.485Z,27.51
2018-05-16T12:32:52.591Z,27.36
2018-05-16T12:35:20.887Z,26.50
2018-05-16T12:37:49.664Z,27.85
2018-05-16T12:40:18.342Z,26.67
2018-05-16T12:46:03.518Z,25.98
2018-05-16T12:48:33.452Z,25.16
2018-05-16T12:51:02.902Z,25.19
2018-05-16T12:53:32.101Z,25.02
2018-05-16T12:56:00.595Z,24.64
2018-05-16T12:58:29.064Z,25.82
2018-05-16T13:00:57.362Z,25.98
2018-05-16T13:03:25.661Z,26.47
2018-05-16T13:05:54.800Z,25.70
2018-05-16T13:08:23.114Z,25.05
2018-05-16T13:10:51.434Z,25.55
2018-05-16T13:13:21.711Z,25.98
2018-05-16T13:15:50.245Z,24.62
2018-05-16T13:18:18.519Z,26.20
2018-05-16T13:20:47.457Z,24.39
2018-05-16T13:23:16.378Z,25.58
2018-05-16T13:25:46.665Z,23.47
2018-05-16T13:28:14.954Z,23.18
2018-05-16T13:30:43.269Z,23.37
2018-05-16T13:33:12.803Z,23.26
2018-05-16T13:35:41.120Z,24.68
2018-05-16T13:38:09.702Z,24.18
2018-05-16T13:40:38.467Z,24.16
2018-05-16T13:43:06.765Z,23.89
2018-05-16T13:45:35.256Z,23.31
2018-05-16T13:48:03.920Z,24.02
2018-05-16T13:50:32.215Z,23.89
2018-05-16T13:53:00.524Z,24.34
2018-05-16T13:55:28.834Z,25.08
2018-05-16T13:57:57.153Z,24.52
2018-05-16T14:00:25.471Z,24.22
2018-05-16T14:02:54.797Z,24.56
2018-05-16T14:05:23.530Z,24.34
2018-05-16T14:07:51.861Z,23.58
2018-05-16T14:10:20.548Z,25.92
2018-05-16T14:12:48.840Z,25.24
2018-05-16T14:15:17.698Z,25.09
2018-05-16T14:17:45.973Z,23.64
2018-05-16T14:20:15.030Z,24.31
2018-05-16T14:22:43.332Z,25.95
2018-05-16T14:25:11.678Z,27.96
2018-05-16T14:27:40.142Z,28.82
2018-05-16T14:30:08.786Z,30.01
2018-05-16T14:32:38.156Z,30.92
2018-05-16T14:35:06.474Z,30.18
2018-05-16T14:37:36.589Z,28.61
2018-05-16T14:40:05.677Z,27.37
2018-05-16T14:42:34.317Z,25.12
2018-05-16T14:45:04.139Z,24.23
2018-05-16T14:47:32.441Z,24.45
2018-05-16T14:50:00.877Z,24.68
2018-05-16T14:52:29.770Z,24.89
2018-05-16T14:54:58.063Z,25.06
2018-05-16T14:57:26.365Z,25.97
2018-05-16T14:59:55.554Z,24.99
2018-05-16T15:02:23.965Z,25.11
2018-05-16T15:04:52.268Z,24.39
2018-05-16T15:07:21.429Z,24.34
2018-05-16T15:09:50.116Z,23.97
2018-05-16T15:12:19.098Z,22.88
2018-05-16T15:14:48.610Z,22.47
2018-05-16T15:17:16.990Z,24.52
2018-05-16T15:19:45.300Z,23.69
2018-05-16T15:22:14.502Z,23.57
2018-05-16T15:24:44.329Z,24.53
2018-05-16T15:27:13.489Z,25.38
2018-05-16T15:29:41.730Z,25.27
2018-05-16T15:32:10.103Z,24.75
2018-05-16T15:34:39.096Z,23.96
2018-05-16T15:37:08.091Z,23.51
2018-05-16T15:39:36.900Z,25.08
2018-05-16T15:42:05.730Z,24.73
2018-05-16T15:44:34.834Z,23.94
2018-05-16T15:47:03.896Z,24.43
2018-05-16T15:49:32.181Z,23.88
2018-05-16T15:52:01.566Z,24.61
2018-05-16T15:54:31.124Z,24.83
2018-05-16T15:57:01.007Z,24.56
2018-05-16T15:59:29.861Z,24.13
2018-05-16T16:01:58.484Z,24.16
2018-05-16T16:04:27.313Z,24.49
2018-05-16T16:06:57.263Z,24.70
2018-05-16T16:09:25.552Z,24.23
2018-05-16T16:11:53.973Z,24.07
2018-05-16T16:14:25.157Z,24.40
2018-05-16T16:16:53.503Z,26.79
2018-05-16T16:19:23.154Z,28.68
2018-05-16T16:21:51.445Z,29.38
2018-05-16T16:24:20.461Z,28.78
2018-05-16T16:26:48.789Z,29.67
2018-05-16T16:29:18.151Z,29.22
2018-05-16T16:31:47.263Z,29.89
2018-05-16T16:34:16.396Z,30.85
2018-05-16T16:36:45.541Z,31.02
2018-05-16T16:39:13.914Z,29.91
2018-05-16T16:41:42.551Z,29.49
2018-05-16T16:44:11.690Z,28.04
2018-05-16T16:46:40.444Z,28.24
2018-05-16T16:49:08.807Z,28.39
2018-05-16T16:51:37.934Z,28.94
2018-05-16T16:54:06.867Z,29.24
2018-05-16T16:56:35.196Z,29.20
2018-05-16T16:59:03.500Z,30.04
2018-05-16T17:01:33.601Z,29.69
2018-05-16T17:04:01.930Z,30.08
2018-05-16T17:06:30.276Z,29.34
2018-05-16T17:08:58.575Z,31.09
2018-05-16T17:11:26.910Z,29.82
2018-05-16T17:13:55.929Z,29.65
2018-05-16T17:16:24.877Z,30.28
2018-05-16T17:18:54.537Z,29.90
2018-05-16T17:21:23.366Z,30.36
2018-05-16T17:23:54.260Z,29.71
2018-05-16T17:26:23.559Z,30.91
2018-05-16T17:28:55.816Z,31.54
2018-05-16T17:31:27.773Z,30.85
2018-05-16T17:33:56.407Z,32.03
2018-05-16T17:36:25.555Z,32.37
2018-05-16T17:38:54.008Z,32.74
2018-05-16T17:41:23.781Z,33.41
2018-05-16T17:43:53.878Z,33.73
2018-05-16T17:46:22.355Z,33.83
2018-05-16T17:48:51.930Z,35.77
2018-05-16T17:51:21.911Z,36.77
2018-05-16T17:53:50.937Z,38.64
2018-05-16T17:56:19.253Z,40.20
2018-05-16T17:58:47.746Z,41.43
2018-05-16T18:01:17.959Z,41.73
2018-05-16T18:03:46.293Z,42.83
2018-05-16T18:06:15.492Z,43.73
2018-05-16T18:08:44.670Z,44.72
2018-05-16T18:11:13.419Z,45.83
2018-05-16T18:14:08.795Z,47.72
2018-05-16T18:19:51.815Z,51.64
2018-05-16T18:22:20.262Z,52.95
2018-05-16T18:24:48.803Z,53.99
2018-05-16T18:27:19.182Z,54.73
2018-05-16T18:29:47.987Z,54.56
2018-05-16T18:32:16.382Z,55.02
2018-05-16T18:34:44.761Z,55.03
2018-05-16T18:37:13.974Z,56.32
2018-05-16T18:39:42.538Z,56.49
2018-05-16T18:42:11.140Z,56.17
2018-05-16T18:44:39.494Z,56.45
2018-05-16T18:47:10.259Z,56.38
2018-05-16T18:49:38.791Z,55.86
2018-05-16T18:52:07.438Z,55.83
2018-05-16T18:54:36.521Z,56.12
2018-05-16T18:57:04.855Z,56.81
2018-05-16T18:59:34.150Z,57.04
2018-05-16T19:02:03.133Z,56.90
2018-05-16T19:04:32.045Z,57.56
2018-05-16T19:07:01.106Z,57.49
2018-05-16T19:09:30.339Z,57.50
2018-05-16T19:11:58.637Z,56.52
2018-05-16T19:14:27.952Z,55.88
2018-05-16T19:16:56.366Z,54.69
2018-05-16T19:19:25.928Z,54.61
2018-05-16T19:21:55.238Z,54.98
2018-05-16T19:24:23.865Z,54.58
2018-05-16T19:26:52.946Z,54.61
2018-05-16T19:29:21.889Z,54.65
2018-05-16T19:31:51.855Z,54.37
2018-05-16T19:34:20.488Z,54.68
2018-05-16T19:36:49.429Z,55.11
2018-05-16T19:39:20.038Z,55.17
2018-05-16T19:41:49.134Z,55.35
2018-05-16T19:44:17.449Z,55.17
2018-05-16T19:46:48.337Z,55.76
2018-05-16T19:49:19.020Z,55.79
2018-05-16T19:51:47.348Z,56.43
2018-05-16T19:54:16.288Z,56.23
2018-05-16T19:56:46.064Z,57.08
2018-05-16T19:59:15.849Z,56.82
2018-05-16T20:01:44.132Z,56.82
2018-05-16T20:04:12.807Z,56.99
2018-05-16T20:06:41.137Z,57.36
2018-05-16T20:09:10.532Z,57.74
2018-05-16T20:11:39.643Z,57.83
2018-05-16T20:14:07.978Z,58.12
2018-05-16T20:16:36.761Z,58.26
2018-05-16T20:19:05.690Z,58.94
2018-05-16T20:21:35.032Z,58.52
2018-05-16T20:24:04.134Z,58.87
2018-05-16T20:26:34.318Z,59.42
2018-05-16T20:29:04.114Z,59.52
2018-05-16T20:31:32.515Z,59.81
2018-05-16T20:34:00.906Z,59.74
2018-05-16T20:36:30.500Z,60.37
2018-05-16T20:38:59.760Z,60.34
2018-05-16T20:41:28.065Z,59.92
2018-05-16T20:43:57.063Z,60.07
2018-05-16T20:46:25.521Z,59.88
2018-05-16T20:48:54.659Z,60.25
2018-05-16T20:51:23.089Z,60.54
2018-05-16T20:53:51.482Z,60.54
2018-05-16T20:56:20.704Z,60.91
2018-05-16T20:58:49.684Z,61.60
2018-05-16T21:01:18.442Z,61.83
2018-05-16T21:03:47.595Z,62.30
2018-05-16T21:06:16.534Z,61.62
2018-05-16T21:08:44.864Z,61.76
2018-05-16T21:11:14.273Z,61.77
2018-05-16T21:13:43.043Z,61.69
2018-05-16T21:16:11.667Z,61.97
2018-05-16T21:18:40.737Z,61.99
2018-05-16T21:21:09.282Z,62.19
2018-05-16T21:23:37.675Z,62.27
2018-05-16T21:26:06.383Z,62.44
2018-05-16T21:28:34.817Z,62.35
2018-05-16T21:31:03.862Z,63.23
2018-05-16T21:33:32.161Z,63.41
2018-05-16T21:36:00.496Z,63.25
2018-05-16T21:38:29.321Z,64.17
2018-05-16T21:40:57.609Z,63.83
2018-05-16T21:43:26.173Z,64.36
2018-05-16T21:45:55.281Z,64.47
2018-05-16T21:48:23.759Z,65.02
2018-05-16T21:50:52.059Z,65.34
2018-05-16T21:53:21.110Z,65.38
2018-05-16T21:55:49.769Z,65.74
2018-05-16T21:58:18.203Z,66.31
2018-05-16T22:00:47.134Z,66.39
2018-05-16T22:03:16.199Z,66.73
2018-05-16T22:05:44.573Z,66.65
2018-05-16T22:08:13.670Z,66.60
2018-05-16T22:10:43.528Z,66.65
2018-05-16T22:13:11.822Z,66.98
2018-05-16T22:15:40.138Z,67.25
2018-05-16T22:18:08.467Z,67.70
2018-05-16T22:20:37.261Z,67.76
2018-05-16T22:23:06.368Z,67.82
2018-05-16T22:25:35.238Z,68.08
2018-05-16T22:28:04.319Z,68.23
2018-05-16T22:30:39.421Z,68.39
2018-05-16T22:33:13.287Z,68.95
2018-05-16T22:35:47.119Z,69.08
2018-05-16T22:38:22.594Z,69.63
2018-05-16T22:40:56.471Z,69.36
2018-05-16T22:43:24.770Z,69.09
2018-05-16T22:45:55.240Z,69.88
2018-05-16T22:48:24.870Z,70.37
2018-05-16T22:50:53.375Z,70.40
2018-05-16T22:53:22.329Z,70.56
2018-05-16T22:55:51.603Z,71.20
2018-05-16T22:58:20.135Z,71.41
2018-05-16T23:00:49.863Z,71.89
2018-05-16T23:03:18.234Z,72.02
2018-05-16T23:05:46.842Z,72.22
2018-05-16T23:08:16.929Z,72.91
2018-05-16T23:10:45.223Z,73.15
2018-05-16T23:13:13.530Z,73.11
2018-05-16T23:15:42.154Z,73.63
2018-05-16T23:18:12.248Z,73.75
2018-05-16T23:20:40.566Z,74.04
2018-05-16T23:23:09.410Z,73.74
2018-05-16T23:25:37.801Z,74.22
2018-05-16T23:28:06.651Z,74.11
2018-05-16T23:30:34.975Z,74.32
2018-05-16T23:33:06.265Z,74.20
2018-05-16T23:35:35.277Z,74.76
2018-05-16T23:38:03.608Z,75.07
2018-05-16T23:40:33.054Z,75.63
2018-05-16T23:43:01.558Z,75.55
2018-05-16T23:45:29.855Z,75.64
2018-05-16T23:47:58.387Z,75.79
2018-05-16T23:50:26.826Z,76.04
2018-05-16T23:52:55.128Z,76.11
2018-05-16T23:55:24.287Z,76.06
2018-05-16T23:57:52.678Z,76.82
